createdAt,value
2023-03-17T00:03:56.490Z,7.93
2023-03-17T00:08:59.348Z,7.70
2023-03-17T00:14:02.164Z,9.90
2023-03-17T00:19:05.165Z,11.07
2023-03-17T00:24:12.966Z,9.50
2023-03-17T00:29:17.370Z,9.65
2023-03-17T00:34:20.423Z,10.35
2023-03-17T00:39:24.559Z,8.95
2023-03-17T00:44:30.569Z,8.55
2023-03-17T00:49:33.341Z,9.27
2023-03-17T00:54:36.198Z,9.45
2023-03-17T00:59:41.970Z,9.52
2023-03-17T01:04:52.874Z,8.88
2023-03-17T01:10:02.453Z,10.07
2023-03-17T01:15:06.318Z,9.02
2023-03-17T01:20:21.973Z,11.20
2023-03-17T01:25:25.204Z,10.88
2023-03-17T01:30:32.640Z,9.20
2023-03-17T01:35:37.143Z,8.80
2023-03-17T01:40:47.226Z,8.50
2023-03-17T01:46:26.273Z,8.98
2023-03-17T01:51:47.407Z,8.57
2023-03-17T01:56:52.644Z,8.90
2023-03-17T02:02:02.684Z,8.13
2023-03-17T02:07:05.790Z,9.73
2023-03-17T02:12:09.617Z,17.75
2023-03-17T02:17:12.448Z,14.17
2023-03-17T02:22:15.928Z,10.50
2023-03-17T02:27:24.874Z,12.18
2023-03-17T02:32:29.362Z,14.10
2023-03-17T02:37:33.868Z,12.77
2023-03-17T02:42:36.993Z,12.80
2023-03-17T02:47:40.154Z,12.02
2023-03-17T02:52:43.067Z,10.15
2023-03-17T02:57:45.937Z,7.57
2023-03-17T03:02:48.823Z,8.43
2023-03-17T03:07:52.632Z,10.00
2023-03-17T03:12:55.384Z,6.28
2023-03-17T03:17:58.236Z,6.95
2023-03-17T03:23:00.979Z,8.00
2023-03-17T03:28:05.138Z,6.60
2023-03-17T03:33:08.290Z,5.10
2023-03-17T03:38:12.614Z,5.63
2023-03-17T03:43:22.859Z,6.22
2023-03-17T03:48:26.658Z,4.90
2023-03-17T03:53:30.172Z,6.50
2023-03-17T03:58:32.859Z,6.75
2023-03-17T04:03:39.593Z,6.25
2023-03-17T04:08:42.431Z,5.55
2023-03-17T04:13:45.099Z,5.50
2023-03-17T04:18:48.012Z,3.72
2023-03-17T04:23:51.047Z,5.75
2023-03-17T04:28:53.758Z,5.78
2023-03-17T04:33:59.045Z,5.40
2023-03-17T04:39:02.327Z,5.93
2023-03-17T04:44:05.361Z,5.20
2023-03-17T04:49:08.804Z,5.03
2023-03-17T04:54:11.590Z,6.28
2023-03-17T04:59:14.580Z,4.43
2023-03-17T05:04:30.851Z,4.40
2023-03-17T05:09:34.183Z,5.40
2023-03-17T05:14:37.635Z,3.63
2023-03-17T05:19:40.369Z,3.00
2023-03-17T05:24:43.342Z,2.88
2023-03-17T05:29:46.067Z,2.53
2023-03-17T05:34:49.123Z,3.17
2023-03-17T05:39:54.073Z,3.60
2023-03-17T05:44:56.860Z,4.25
2023-03-17T05:50:01.044Z,3.40
2023-03-17T05:55:04.238Z,3.73
2023-03-17T06:00:08.100Z,3.65
2023-03-17T06:05:10.827Z,2.53
2023-03-17T06:10:14.048Z,2.95
2023-03-17T06:15:17.508Z,2.72
2023-03-17T06:20:20.454Z,3.35
2023-03-17T06:25:23.244Z,8.07
2023-03-17T06:30:25.961Z,3.38
2023-03-17T06:35:29.884Z,2.55
2023-03-17T06:40:34.453Z,2.67
2023-03-17T06:45:37.830Z,2.60
2023-03-17T06:50:40.939Z,2.28
2023-03-17T06:55:43.896Z,2.05
2023-03-17T07:00:49.214Z,1.95
2023-03-17T07:05:52.716Z,2.50
2023-03-17T07:10:57.674Z,2.10
2023-03-17T07:16:00.761Z,1.98
2023-03-17T07:21:03.753Z,1.38
2023-03-17T07:26:06.791Z,2.35
2023-03-17T07:31:10.913Z,2.25
2023-03-17T07:36:13.874Z,2.08
2023-03-17T07:41:16.711Z,2.40
2023-03-17T07:46:19.772Z,1.88
2023-03-17T07:51:23.708Z,1.65
2023-03-17T07:56:26.452Z,2.10
2023-03-17T08:01:29.629Z,2.20
2023-03-17T08:06:32.843Z,1.45
2023-03-17T08:11:36.435Z,1.67
2023-03-17T08:16:39.557Z,1.70
2023-03-17T08:21:42.531Z,1.88
2023-03-17T08:26:49.399Z,1.90
2023-03-17T08:31:52.518Z,1.52
2023-03-17T08:36:55.232Z,1.70
2023-03-17T08:41:58.355Z,1.80
2023-03-17T08:47:01.380Z,1.48
2023-03-17T08:52:04.278Z,1.77
2023-03-17T08:57:07.058Z,2.17
2023-03-17T09:02:12.140Z,1.63
2023-03-17T09:07:15.596Z,1.85
2023-03-17T09:12:18.283Z,1.88
2023-03-17T09:17:21.037Z,1.20
2023-03-17T09:22:23.949Z,1.45
2023-03-17T09:27:26.903Z,1.50
2023-03-17T09:32:29.893Z,1.75
2023-03-17T09:37:34.773Z,1.90
2023-03-17T09:43:00.209Z,1.70
2023-03-17T09:48:11.309Z,1.30
2023-03-17T09:53:35.950Z,3.20
2023-03-17T09:58:40.243Z,3.15
2023-03-17T10:03:43.258Z,3.33
2023-03-17T10:08:54.651Z,2.10
2023-03-17T10:14:16.329Z,2.50
2023-03-17T10:19:36.501Z,2.90
2023-03-17T10:24:43.961Z,2.10
2023-03-17T10:29:48.489Z,1.80
2023-03-17T10:34:52.990Z,1.63
2023-03-17T10:39:57.606Z,2.08
2023-03-17T10:45:28.125Z,2.58
2023-03-17T10:50:36.267Z,2.25
2023-03-17T10:55:38.902Z,1.80
2023-03-17T11:00:57.953Z,2.47
2023-03-17T11:06:11.042Z,2.22
2023-03-17T11:11:31.816Z,2.10
2023-03-17T11:16:38.209Z,2.17
2023-03-17T11:22:25.259Z,3.00
2023-03-17T11:27:35.607Z,2.47
2023-03-17T11:32:48.168Z,1.67
2023-03-17T11:38:28.805Z,1.50
2023-03-17T11:43:50.150Z,1.67
2023-03-17T11:49:15.212Z,3.42
2023-03-17T11:59:30.878Z,3.30
2023-03-17T12:04:38.285Z,2.75
2023-03-17T12:09:48.304Z,4.30
2023-03-17T12:14:52.713Z,8.32
2023-03-17T12:20:18.591Z,6.50
2023-03-17T12:25:25.966Z,4.85
2023-03-17T12:30:45.776Z,4.60
2023-03-17T12:35:48.618Z,3.05
2023-03-17T12:41:22.291Z,3.75
2023-03-17T12:46:53.946Z,4.95
2023-03-17T12:52:02.257Z,4.82
2023-03-17T12:57:05.367Z,4.32
2023-03-17T13:02:18.283Z,4.30
2023-03-17T13:07:27.315Z,4.40
2023-03-17T13:12:44.961Z,4.88
2023-03-17T13:17:48.227Z,7.72
2023-03-17T13:23:12.231Z,9.18
2023-03-17T13:28:15.535Z,7.53
2023-03-17T13:33:26.235Z,7.45
2023-03-17T13:38:38.092Z,7.97
2023-03-17T13:44:23.358Z,6.70
2023-03-17T13:49:29.938Z,7.00
2023-03-17T13:54:35.318Z,5.95
2023-03-17T13:59:40.998Z,5.20
2023-03-17T14:04:54.014Z,5.90
2023-03-17T14:10:00.090Z,6.65
2023-03-17T14:15:17.698Z,5.75
2023-03-17T14:20:23.920Z,7.25
2023-03-17T14:25:38.656Z,6.22
2023-03-17T14:30:53.623Z,4.30
2023-03-17T14:36:01.783Z,3.13
2023-03-17T14:41:22.985Z,2.60
2023-03-17T14:46:31.015Z,3.65
2023-03-17T14:51:36.845Z,5.80
2023-03-17T14:56:49.987Z,3.67
2023-03-17T15:02:04.424Z,3.00
2023-03-17T15:07:08.092Z,2.83
2023-03-17T15:12:18.934Z,4.97
2023-03-17T15:17:26.331Z,7.88
2023-03-17T15:22:37.111Z,7.95
2023-03-17T15:27:39.893Z,5.85
2023-03-17T15:32:42.696Z,3.60
2023-03-17T15:37:45.618Z,3.22
2023-03-17T15:42:48.614Z,2.33
2023-03-17T15:47:51.691Z,2.42
2023-03-17T15:52:56.269Z,3.00
2023-03-17T15:57:59.631Z,3.42
2023-03-17T16:03:09.307Z,3.20
2023-03-17T16:08:14.524Z,3.63
2023-03-17T16:13:17.265Z,3.20
2023-03-17T16:18:24.749Z,3.58
2023-03-17T16:23:31.512Z,3.50
2023-03-17T16:28:35.645Z,3.25
2023-03-17T16:33:43.817Z,3.55
2023-03-17T16:38:47.582Z,3.38
2023-03-17T16:43:58.466Z,3.40
2023-03-17T16:49:04.953Z,3.75
2023-03-17T16:54:08.459Z,3.95
2023-03-17T16:59:21.189Z,3.40
2023-03-17T17:04:26.993Z,4.40
2023-03-17T17:09:29.752Z,4.10
2023-03-17T17:14:32.827Z,3.80
2023-03-17T17:19:35.866Z,3.65
2023-03-17T17:24:38.595Z,3.00
2023-03-17T17:29:41.400Z,3.67
2023-03-17T17:34:44.207Z,3.03
2023-03-17T17:39:47.106Z,3.08
2023-03-17T17:44:50.180Z,2.80
2023-03-17T17:49:53.810Z,3.08
2023-03-17T17:55:03.285Z,2.97
2023-03-17T18:00:10.810Z,3.00
2023-03-17T18:05:14.091Z,3.40
2023-03-17T18:10:27.254Z,3.25
2023-03-17T18:15:30.193Z,3.17
2023-03-17T18:20:33.358Z,3.25
2023-03-17T18:25:37.862Z,3.50
2023-03-17T18:30:41.097Z,3.80
2023-03-17T18:35:48.268Z,4.00
2023-03-17T18:40:51.462Z,3.45
2023-03-17T18:45:54.254Z,3.13
2023-03-17T18:50:57.074Z,3.00
2023-03-17T18:55:59.785Z,2.60
2023-03-17T19:01:03.108Z,2.95
2023-03-17T19:06:24.552Z,3.08
2023-03-17T19:11:27.714Z,2.65
2023-03-17T19:16:31.192Z,2.90
2023-03-17T19:21:34.038Z,2.85
2023-03-17T19:26:37.837Z,3.60
2023-03-17T19:31:41.734Z,3.60
2023-03-17T19:36:46.901Z,3.50
2023-03-17T19:41:53.542Z,3.50
2023-03-17T19:46:56.237Z,4.05
2023-03-17T19:51:58.915Z,4.10
2023-03-17T19:57:01.790Z,3.78
2023-03-17T20:02:04.589Z,3.78
2023-03-17T20:07:07.790Z,3.97
2023-03-17T20:12:10.763Z,3.85
2023-03-17T20:17:14.906Z,4.30
2023-03-17T20:22:17.630Z,3.90
2023-03-17T20:27:20.577Z,4.03
2023-03-17T20:32:23.321Z,3.65
2023-03-17T20:37:26.289Z,3.90
2023-03-17T20:42:29.000Z,3.30
2023-03-17T20:47:31.821Z,3.60
2023-03-17T20:52:36.032Z,3.47
2023-03-17T20:57:38.750Z,2.97
2023-03-17T21:02:41.613Z,3.10
2023-03-17T21:07:44.927Z,2.83
2023-03-17T21:12:48.368Z,3.08
2023-03-17T21:17:51.062Z,3.25
2023-03-17T21:22:53.790Z,2.90
2023-03-17T21:27:56.863Z,2.70
2023-03-17T21:33:01.281Z,2.95
2023-03-17T21:38:04.232Z,2.80
2023-03-17T21:43:06.982Z,2.90
2023-03-17T21:48:09.780Z,2.70
2023-03-17T21:53:15.152Z,2.47
2023-03-17T21:58:18.247Z,2.97
2023-03-17T22:03:21.073Z,2.75
2023-03-17T22:08:23.856Z,2.92
2023-03-17T22:13:26.720Z,3.03
2023-03-17T22:18:29.448Z,2.95
2023-03-17T22:23:33.669Z,2.85
2023-03-17T22:28:36.504Z,2.92
2023-03-17T22:33:39.561Z,2.50
2023-03-17T22:38:42.664Z,2.97
2023-03-17T22:43:45.894Z,2.92
2023-03-17T22:48:48.904Z,2.80
2023-03-17T22:53:52.133Z,3.05
2023-03-17T22:58:55.502Z,3.25
2023-03-17T23:03:58.317Z,2.95
2023-03-17T23:09:01.400Z,3.50
2023-03-17T23:14:04.723Z,3.40
2023-03-17T23:19:07.490Z,3.28
2023-03-17T23:24:10.494Z,3.42
2023-03-17T23:29:13.493Z,3.50
2023-03-17T23:34:16.336Z,4.10
2023-03-17T23:39:19.305Z,3.75
2023-03-17T23:44:23.021Z,4.25
2023-03-17T23:49:25.838Z,3.17
2023-03-17T23:54:29.073Z,4.03
2023-03-17T23:59:31.770Z,3.85
